Terminal Aerodrome Forecast
Issued by NWS

Home | Current Version | Previous Version | Text Only | Print | Product List | Glossary On
Versions: 1 2 3 4 5 6 7 8 9 10 11 12 13 14 15 16 17 18 19 20 21 22 23 24 25 26
000
FTUS43 KGLD 222320
TAFMCK
TAF
KMCK 222320Z 2300/2324 19012G18KT P6SM BKN200
     FM230600 28012KT P6SM BKN100
     FM230900 32012G18KT P6SM BKN080
     FM231200 34025G35KT P6SM -SHSNRA SCT050 OVC080=

USA.gov is the U.S. government's official web portal to all federal, state and local government web resources and services.